createdAt,value
2018-05-03T00:00:01.436Z,97576.42
2018-05-03T00:02:28.667Z,97577.44
2018-05-03T00:04:55.808Z,97574.16
2018-05-03T00:07:23.370Z,97583.59
2018-05-03T00:09:50.881Z,97580.09
2018-05-03T00:12:18.401Z,97586.59
2018-05-03T00:14:45.928Z,97594.28
2018-05-03T00:17:13.103Z,97595.28
2018-05-03T00:19:40.317Z,97602.73
2018-05-03T00:22:07.477Z,97596.49
2018-05-03T00:24:34.607Z,97593.88
2018-05-03T00:27:01.763Z,97596.72
2018-05-03T00:29:28.838Z,97604.88
2018-05-03T00:31:55.998Z,97596.05
2018-05-03T00:34:23.519Z,97593.09
2018-05-03T00:36:50.717Z,97587.83
2018-05-03T00:39:17.801Z,97587.47
2018-05-03T00:41:44.868Z,97589.52
2018-05-03T00:44:12.107Z,97594.46
2018-05-03T00:46:39.273Z,97600.24
2018-05-03T00:49:06.433Z,97588.97
2018-05-03T00:51:33.508Z,97590.47
2018-05-03T00:54:00.707Z,97590.91
2018-05-03T00:56:27.893Z,97586.95
2018-05-03T00:58:54.987Z,97580.02
2018-05-03T01:01:22.163Z,97576.51
2018-05-03T01:03:49.416Z,97575.88
2018-05-03T01:06:16.935Z,97578.14
2018-05-03T01:08:44.148Z,97582.52
2018-05-03T01:11:11.248Z,97581.39
2018-05-03T01:13:38.427Z,97582.59
2018-05-03T01:16:06.231Z,97583.02
2018-05-03T01:18:33.398Z,97581.37
2018-05-03T01:21:00.462Z,97583.37
2018-05-03T01:23:27.683Z,97584.81
2018-05-03T01:25:54.780Z,97574.05
2018-05-03T01:28:22.003Z,97574.06
2018-05-03T01:30:49.401Z,97579.45
2018-05-03T01:33:16.461Z,97585.28
2018-05-03T01:35:49.611Z,97586.06
2018-05-03T01:38:16.725Z,97586.70
2018-05-03T01:40:43.990Z,97589.16
2018-05-03T01:43:11.076Z,97590.75
2018-05-03T01:45:38.310Z,97594.14
2018-05-03T01:48:05.743Z,97594.92
2018-05-03T01:50:32.831Z,97594.88
2018-05-03T01:52:59.882Z,97601.72
2018-05-03T01:55:27.337Z,97601.88
2018-05-03T01:57:54.442Z,97595.17
2018-05-03T02:00:21.512Z,97595.77
2018-05-03T02:02:48.906Z,97599.33
2018-05-03T02:05:16.027Z,97598.95
2018-05-03T02:07:43.867Z,97594.87
2018-05-03T02:10:10.957Z,97597.45
2018-05-03T02:12:38.063Z,97603.80
2018-05-03T02:15:05.126Z,97607.66
2018-05-03T02:17:32.212Z,97605.40
2018-05-03T02:19:59.281Z,97603.14
2018-05-03T02:22:26.363Z,97598.50
2018-05-03T02:24:53.521Z,97596.75
2018-05-03T02:27:20.583Z,97590.69
2018-05-03T02:29:47.846Z,97588.05
2018-05-03T02:32:14.977Z,97590.39
2018-05-03T02:34:42.043Z,97585.93
2018-05-03T02:37:09.433Z,97595.39
2018-05-03T02:39:36.618Z,97596.83
2018-05-03T02:42:03.691Z,97599.41
2018-05-03T02:44:30.802Z,97599.36
2018-05-03T02:46:57.895Z,97591.39
2018-05-03T02:49:24.996Z,97592.77
2018-05-03T02:51:52.897Z,97603.38
2018-05-03T02:54:20.075Z,97596.60
2018-05-03T02:56:47.143Z,97596.05
2018-05-03T02:59:22.207Z,97596.36
2018-05-03T03:01:55.915Z,97592.33
2018-05-03T03:04:35.009Z,97596.84
2018-05-03T03:10:26.557Z,97596.88
2018-05-03T03:13:05.273Z,97597.80
2018-05-03T03:15:40.022Z,97595.16
2018-05-03T03:18:13.112Z,97593.23
2018-05-03T03:20:46.956Z,97597.00
2018-05-03T03:23:26.259Z,97600.77
2018-05-03T03:26:05.359Z,97610.97
2018-05-03T03:28:44.013Z,97614.66
2018-05-03T03:31:22.906Z,97614.13
2018-05-03T03:33:55.849Z,97617.43
2018-05-03T03:36:29.129Z,97616.34
2018-05-03T03:39:02.689Z,97611.89
2018-05-03T03:41:35.719Z,97608.83
2018-05-03T03:44:08.782Z,97605.53
2018-05-03T03:46:35.973Z,97611.56
2018-05-03T03:49:03.093Z,97609.18
2018-05-03T03:51:30.309Z,97612.95
2018-05-03T03:53:57.558Z,97612.51
2018-05-03T03:56:24.753Z,97616.59
2018-05-03T03:58:51.834Z,97625.45
2018-05-03T04:01:18.953Z,97628.58
2018-05-03T04:03:46.215Z,97625.63
2018-05-03T04:06:13.433Z,97633.84
2018-05-03T04:08:40.543Z,97637.20
2018-05-03T04:11:07.710Z,97632.61
2018-05-03T04:13:34.929Z,97633.70
2018-05-03T04:16:02.112Z,97642.47
2018-05-03T04:18:35.203Z,97641.03
2018-05-03T04:21:08.133Z,97643.48
2018-05-03T04:23:41.121Z,97644.23
2018-05-03T04:26:08.319Z,97648.25
2018-05-03T04:28:35.480Z,97643.80
2018-05-03T04:31:02.864Z,97646.50
2018-05-03T04:33:29.978Z,97642.38
2018-05-03T04:35:57.199Z,97647.79
2018-05-03T04:38:24.379Z,97646.72
2018-05-03T04:40:51.990Z,97654.89
2018-05-03T04:43:19.346Z,97651.77
2018-05-03T04:45:46.501Z,97662.95
2018-05-03T04:48:13.903Z,97667.92
2018-05-03T04:50:40.990Z,97670.82
2018-05-03T04:53:08.094Z,97672.84
2018-05-03T04:55:35.849Z,97671.56
2018-05-03T04:58:03.091Z,97667.66
2018-05-03T05:00:30.390Z,97670.67
2018-05-03T05:02:57.575Z,97671.45
2018-05-03T05:05:24.866Z,97671.38
2018-05-03T05:07:52.114Z,97682.16
2018-05-03T05:10:19.194Z,97682.82
2018-05-03T05:12:46.371Z,97685.31
2018-05-03T05:15:13.658Z,97686.59
2018-05-03T05:17:41.033Z,97688.30
2018-05-03T05:20:08.170Z,97680.98
2018-05-03T05:22:35.320Z,97685.83
2018-05-03T05:25:02.626Z,97690.95
2018-05-03T05:27:29.914Z,97688.83
2018-05-03T05:29:57.155Z,97689.83
2018-05-03T05:32:24.432Z,97692.53
2018-05-03T05:34:51.769Z,97697.08
2018-05-03T05:37:19.335Z,97700.60
2018-05-03T05:39:46.559Z,97706.02
2018-05-03T05:42:13.630Z,97702.66
2018-05-03T05:44:40.694Z,97710.39
2018-05-03T05:47:08.025Z,97715.81
2018-05-03T05:49:35.174Z,97721.17
2018-05-03T05:52:02.253Z,97716.95
2018-05-03T05:54:29.600Z,97727.17
2018-05-03T05:56:56.904Z,97726.11
2018-05-03T05:59:24.839Z,97728.27
2018-05-03T06:01:51.946Z,97721.75
2018-05-03T06:04:19.154Z,97726.91
2018-05-03T06:06:46.376Z,97733.02
2018-05-03T06:09:13.679Z,97735.56
2018-05-03T06:11:41.024Z,97734.34
2018-05-03T06:14:08.236Z,97738.98
2018-05-03T06:16:35.356Z,97741.05
2018-05-03T06:19:02.597Z,97734.81
2018-05-03T06:21:29.734Z,97740.15
2018-05-03T06:23:57.020Z,97746.59
2018-05-03T06:26:24.207Z,97748.62
2018-05-03T06:28:51.646Z,97754.84
2018-05-03T06:31:18.929Z,97760.28
2018-05-03T06:33:46.044Z,97761.23
2018-05-03T06:36:13.225Z,97759.77
2018-05-03T06:38:40.436Z,97759.66
2018-05-03T06:41:07.591Z,97763.44
2018-05-03T06:43:35.012Z,97765.75
2018-05-03T06:46:02.114Z,97758.64
2018-05-03T06:48:29.890Z,97760.59
2018-05-03T06:50:57.356Z,97760.02
2018-05-03T06:53:24.662Z,97762.42
2018-05-03T06:55:51.777Z,97757.63
2018-05-03T06:58:18.910Z,97772.80
2018-05-03T07:00:46.039Z,97774.09
2018-05-03T07:03:13.234Z,97775.11
2018-05-03T07:05:40.490Z,97774.15
2018-05-03T07:08:07.637Z,97775.50
2018-05-03T07:10:34.895Z,97773.67
2018-05-03T07:13:02.108Z,97778.13
2018-05-03T07:15:29.285Z,97780.84
2018-05-03T07:17:56.418Z,97787.55
2018-05-03T07:20:23.593Z,97787.28
2018-05-03T07:22:50.730Z,97782.89
2018-05-03T07:25:18.086Z,97783.85
2018-05-03T07:27:45.196Z,97782.79
2018-05-03T07:30:12.404Z,97789.16
2018-05-03T07:32:39.824Z,97792.73
2018-05-03T07:35:08.284Z,97796.83
2018-05-03T07:37:35.810Z,97788.20
2018-05-03T07:40:03.450Z,97789.63
2018-05-03T07:42:31.235Z,97795.47
2018-05-03T07:44:58.770Z,97795.38
2018-05-03T07:47:26.545Z,97804.94
2018-05-03T07:49:54.285Z,97797.23
2018-05-03T07:52:22.160Z,97801.25
2018-05-03T07:54:49.245Z,97801.64
2018-05-03T07:57:16.981Z,97804.20
2018-05-03T07:59:45.290Z,97803.46
2018-05-03T08:02:12.639Z,97796.50
2018-05-03T08:04:39.967Z,97794.55
2018-05-03T08:07:07.588Z,97801.28
2018-05-03T08:09:35.505Z,97797.75
2018-05-03T08:12:03.160Z,97805.37
2018-05-03T08:14:30.341Z,97805.42
2018-05-03T08:16:57.733Z,97805.73
2018-05-03T08:19:25.106Z,97805.58
2018-05-03T08:21:52.395Z,97809.70
2018-05-03T08:24:19.652Z,97814.51
2018-05-03T08:26:47.275Z,97811.81
2018-05-03T08:29:14.737Z,97813.28
2018-05-03T08:31:41.945Z,97809.81
2018-05-03T08:34:09.067Z,97816.39
2018-05-03T08:36:36.142Z,97820.21
2018-05-03T08:39:03.570Z,97822.66
2018-05-03T08:41:31.103Z,97825.38
2018-05-03T08:43:58.246Z,97836.13
2018-05-03T08:46:25.967Z,97833.92
2018-05-03T08:48:53.627Z,97844.61
2018-05-03T08:51:21.277Z,97849.08
2018-05-03T08:53:48.908Z,97843.73
2018-05-03T08:56:16.527Z,97847.73
2018-05-03T08:58:44.247Z,97846.59
2018-05-03T09:01:11.838Z,97848.98
2018-05-03T09:03:39.626Z,97849.95
2018-05-03T09:06:07.162Z,97848.62
2018-05-03T09:08:35.656Z,97845.73
2018-05-03T09:11:03.457Z,97844.13
2018-05-03T09:13:31.007Z,97846.59
2018-05-03T09:15:58.590Z,97850.31
2018-05-03T09:18:26.170Z,97845.43
2018-05-03T09:20:54.296Z,97848.36
2018-05-03T09:23:21.900Z,97844.96
2018-05-03T09:25:49.456Z,97850.70
2018-05-03T09:28:17.027Z,97850.28
2018-05-03T09:30:44.784Z,97854.59
2018-05-03T09:33:12.360Z,97854.10
2018-05-03T09:35:39.956Z,97855.80
2018-05-03T09:38:07.480Z,97854.03
2018-05-03T09:40:35.412Z,97857.46
2018-05-03T09:43:03.327Z,97858.36
2018-05-03T09:45:31.287Z,97855.99
2018-05-03T09:47:58.808Z,97854.38
2018-05-03T09:50:26.412Z,97856.11
2018-05-03T09:52:54.121Z,97870.53
2018-05-03T09:55:21.676Z,97869.36
2018-05-03T09:57:49.372Z,97869.77
2018-05-03T10:00:17.260Z,97863.50
2018-05-03T10:02:45.267Z,97872.52
2018-05-03T10:05:13.456Z,97864.59
2018-05-03T10:07:41.042Z,97868.01
2018-05-03T10:10:08.666Z,97873.92
2018-05-03T10:12:36.332Z,97872.14
2018-05-03T10:15:03.962Z,97864.84
2018-05-03T10:17:31.604Z,97870.28
2018-05-03T10:19:59.218Z,97869.67
2018-05-03T10:22:27.029Z,97879.88
2018-05-03T10:24:54.692Z,97877.66
2018-05-03T10:27:22.265Z,97868.39
2018-05-03T10:29:50.127Z,97865.94
2018-05-03T10:32:17.907Z,97870.13
2018-05-03T10:34:45.671Z,97874.84
2018-05-03T10:37:13.296Z,97870.53
2018-05-03T10:39:40.942Z,97876.89
2018-05-03T10:42:08.812Z,97883.83
2018-05-03T10:44:36.616Z,97874.52
2018-05-03T10:47:04.221Z,97867.68
2018-05-03T10:49:32.157Z,97868.01
2018-05-03T10:51:59.767Z,97874.40
2018-05-03T10:54:27.458Z,97872.88
2018-05-03T10:56:55.405Z,97876.87
2018-05-03T10:59:22.967Z,97875.13
2018-05-03T11:01:50.527Z,97867.89
2018-05-03T11:04:18.555Z,97860.28
2018-05-03T11:06:46.482Z,97870.06
2018-05-03T11:09:14.207Z,97877.22
2018-05-03T11:11:41.737Z,97880.59
2018-05-03T11:14:09.286Z,97880.87
2018-05-03T11:16:37.058Z,97873.83
2018-05-03T11:19:04.741Z,97870.05
2018-05-03T11:21:32.315Z,97870.10
2018-05-03T11:24:00.007Z,97871.88
2018-05-03T11:26:27.886Z,97878.45
2018-05-03T11:28:55.581Z,97879.20
2018-05-03T11:31:23.241Z,97880.03
2018-05-03T11:33:50.929Z,97878.72
2018-05-03T11:36:18.571Z,97873.01
2018-05-03T11:38:46.112Z,97876.23
2018-05-03T11:41:13.688Z,97869.24
2018-05-03T11:43:41.300Z,97867.70
2018-05-03T11:46:09.013Z,97867.27
2018-05-03T11:48:37.742Z,97873.06
2018-05-03T11:51:05.468Z,97862.78
2018-05-03T11:53:33.168Z,97873.73
2018-05-03T11:56:00.785Z,97865.56
2018-05-03T11:58:28.699Z,97869.02
2018-05-03T12:00:56.237Z,97864.39
2018-05-03T12:03:23.774Z,97866.76
2018-05-03T12:05:51.896Z,97867.47
2018-05-03T12:08:19.511Z,97866.98
2018-05-03T12:10:47.687Z,97867.20
2018-05-03T12:13:15.552Z,97863.31
2018-05-03T12:15:43.936Z,97864.15
2018-05-03T12:18:11.567Z,97864.26
2018-05-03T12:20:39.156Z,97867.04
2018-05-03T12:23:06.692Z,97862.33
2018-05-03T12:25:34.322Z,97861.44
2018-05-03T12:28:02.014Z,97857.61
2018-05-03T12:30:30.272Z,97854.39
2018-05-03T12:32:57.812Z,97862.44
2018-05-03T12:35:25.497Z,97853.95
2018-05-03T12:37:53.038Z,97849.11
2018-05-03T12:40:20.606Z,97848.01
2018-05-03T12:42:48.235Z,97849.37
2018-05-03T12:45:15.847Z,97850.86
2018-05-03T12:47:43.755Z,97845.95
2018-05-03T12:50:11.416Z,97846.36
2018-05-03T12:52:39.223Z,97845.36
2018-05-03T12:55:06.800Z,97841.93
2018-05-03T12:57:34.470Z,97842.05
2018-05-03T13:00:02.171Z,97839.53
2018-05-03T13:02:29.765Z,97832.02
2018-05-03T13:04:57.526Z,97822.22
2018-05-03T13:07:25.084Z,97826.55
2018-05-03T13:09:52.679Z,97831.87
2018-05-03T13:12:20.268Z,97827.55
2018-05-03T13:14:47.842Z,97832.53
2018-05-03T13:17:15.518Z,97837.66
2018-05-03T13:19:43.193Z,97828.34
2018-05-03T13:22:10.807Z,97826.58
2018-05-03T13:24:38.342Z,97830.86
2018-05-03T13:27:05.938Z,97830.45
2018-05-03T13:29:33.512Z,97829.52
2018-05-03T13:32:01.601Z,97829.89
2018-05-03T13:34:29.266Z,97821.22
2018-05-03T13:36:56.807Z,97826.39
2018-05-03T13:39:24.608Z,97832.34
2018-05-03T13:41:52.149Z,97827.05
2018-05-03T13:44:19.723Z,97820.87
2018-05-03T13:46:47.856Z,97828.09
2018-05-03T13:49:15.572Z,97814.80
2018-05-03T13:51:43.176Z,97826.53
2018-05-03T13:54:11.662Z,97816.61
2018-05-03T13:56:39.308Z,97815.36
2018-05-03T13:59:06.901Z,97805.41
2018-05-03T14:01:34.541Z,97799.04
2018-05-03T14:04:02.153Z,97800.22
2018-05-03T14:06:29.709Z,97805.80
2018-05-03T14:08:59.838Z,97808.83
2018-05-03T14:11:28.130Z,97805.98
2018-05-03T14:13:55.767Z,97815.16
2018-05-03T14:16:23.363Z,97816.41
2018-05-03T14:18:51.249Z,97812.77
2018-05-03T14:21:19.015Z,97809.17
2018-05-03T14:23:46.609Z,97807.36
2018-05-03T14:26:14.417Z,97798.45
2018-05-03T14:28:42.001Z,97798.91
2018-05-03T14:31:09.699Z,97807.55
2018-05-03T14:33:37.452Z,97802.86
2018-05-03T14:36:05.195Z,97804.47
2018-05-03T14:38:32.764Z,97803.74
2018-05-03T14:41:00.435Z,97810.55
2018-05-03T14:43:28.131Z,97806.27
2018-05-03T14:45:55.713Z,97810.18
2018-05-03T14:48:23.495Z,97808.43
2018-05-03T14:50:51.074Z,97807.77
2018-05-03T14:53:19.548Z,97811.15
2018-05-03T14:55:47.244Z,97808.95
2018-05-03T14:58:14.815Z,97813.63
2018-05-03T15:00:42.627Z,97814.63
2018-05-03T15:03:10.172Z,97813.47
2018-05-03T15:05:38.047Z,97816.27
2018-05-03T15:08:05.668Z,97818.47
2018-05-03T15:10:33.510Z,97810.92
2018-05-03T15:13:01.163Z,97811.55
2018-05-03T15:15:28.793Z,97808.06
2018-05-03T15:17:56.497Z,97813.84
2018-05-03T15:20:24.043Z,97811.53
2018-05-03T15:22:51.563Z,97809.09
2018-05-03T15:25:19.114Z,97813.52
2018-05-03T15:27:47.029Z,97807.09
2018-05-03T15:30:14.754Z,97814.39
2018-05-03T15:32:42.458Z,97805.30
2018-05-03T15:35:09.990Z,97805.46
2018-05-03T15:37:38.223Z,97807.11
2018-05-03T15:40:05.874Z,97804.79
2018-05-03T15:42:33.505Z,97801.19
2018-05-03T15:45:01.054Z,97803.48
2018-05-03T15:47:28.578Z,97805.39
2018-05-03T15:49:56.227Z,97802.94
2018-05-03T15:52:23.761Z,97801.14
2018-05-03T15:54:51.458Z,97802.58
2018-05-03T15:57:19.047Z,97803.13
2018-05-03T15:59:46.680Z,97793.39
2018-05-03T16:02:14.332Z,97796.98
2018-05-03T16:04:42.095Z,97785.80
2018-05-03T16:07:10.648Z,97787.15
2018-05-03T16:09:38.366Z,97788.73
2018-05-03T16:12:06.143Z,97789.42
2018-05-03T16:14:33.708Z,97789.09
2018-05-03T16:17:01.283Z,97787.68
2018-05-03T16:19:29.018Z,97790.20
2018-05-03T16:21:56.672Z,97785.98
2018-05-03T16:24:24.243Z,97785.65
2018-05-03T16:26:51.845Z,97782.97
2018-05-03T16:29:19.554Z,97785.55
2018-05-03T16:31:47.581Z,97793.41
2018-05-03T16:34:15.295Z,97794.67
2018-05-03T16:36:42.948Z,97797.64
2018-05-03T16:39:10.490Z,97800.95
2018-05-03T16:41:38.233Z,97796.69
2018-05-03T16:44:05.913Z,97796.48
2018-05-03T16:46:33.557Z,97798.24
2018-05-03T16:49:01.358Z,97802.59
2018-05-03T16:51:28.892Z,97804.48
2018-05-03T16:53:56.836Z,97802.51
2018-05-03T16:56:24.395Z,97807.67
2018-05-03T16:58:52.068Z,97806.16
2018-05-03T17:01:19.749Z,97809.30
2018-05-03T17:03:47.409Z,97811.23
2018-05-03T17:06:15.410Z,97809.24
2018-05-03T17:08:43.174Z,97810.18
2018-05-03T17:11:11.398Z,97807.71
2018-05-03T17:13:39.015Z,97804.03
2018-05-03T17:16:06.982Z,97805.55
2018-05-03T17:18:34.543Z,97815.39
2018-05-03T17:21:02.324Z,97815.06
2018-05-03T17:23:30.939Z,97820.05
2018-05-03T17:25:58.074Z,97818.80
2018-05-03T17:28:25.695Z,97823.82
2018-05-03T17:30:53.530Z,97824.29
2018-05-03T17:33:21.157Z,97831.70
2018-05-03T17:35:49.071Z,97831.23
2018-05-03T17:38:16.855Z,97836.08
2018-05-03T17:40:44.435Z,97834.80
2018-05-03T17:43:12.189Z,97841.97
2018-05-03T17:45:39.295Z,97844.27
2018-05-03T17:48:06.952Z,97841.97
2018-05-03T17:50:34.574Z,97842.81
2018-05-03T17:53:02.869Z,97849.35
2018-05-03T17:55:30.513Z,97849.41
2018-05-03T17:57:58.251Z,97852.44
2018-05-03T18:00:25.962Z,97855.94
2018-05-03T18:02:54.026Z,97853.05
2018-05-03T18:05:21.569Z,97870.31
2018-05-03T18:07:49.136Z,97868.84
2018-05-03T18:10:16.716Z,97873.47
2018-05-03T18:12:44.551Z,97867.73
2018-05-03T18:15:12.806Z,97871.58
2018-05-03T18:17:41.376Z,97874.31
2018-05-03T18:20:09.019Z,97875.69
2018-05-03T18:22:36.599Z,97872.07
2018-05-03T18:25:04.235Z,97877.18
2018-05-03T18:27:31.819Z,97886.75
2018-05-03T18:29:59.490Z,97892.34
2018-05-03T18:32:27.065Z,97888.55
2018-05-03T18:34:54.864Z,97899.61
2018-05-03T18:37:21.995Z,97898.03
2018-05-03T18:39:49.089Z,97911.94
2018-05-03T18:42:16.689Z,97914.75
2018-05-03T18:44:44.331Z,97913.42
2018-05-03T18:50:33.046Z,97919.50
2018-05-03T18:53:01.189Z,97915.02
2018-05-03T18:55:29.193Z,97924.31
2018-05-03T18:57:56.817Z,97926.81
2018-05-03T19:00:24.705Z,97930.94
2018-05-03T19:02:52.315Z,97936.21
2018-05-03T19:05:20.054Z,97938.49
2018-05-03T19:10:49.689Z,97944.45
2018-05-03T19:13:17.299Z,97939.77
2018-05-03T19:15:44.797Z,97947.34
2018-05-03T19:18:12.356Z,97956.65
2018-05-03T19:20:40.081Z,97957.00
2018-05-03T19:23:07.579Z,97955.39
2018-05-03T19:25:35.404Z,97962.81
2018-05-03T19:28:03.980Z,97965.65
2018-05-03T19:30:31.871Z,97963.88
2018-05-03T19:32:59.470Z,97965.23
2018-05-03T19:35:27.132Z,97970.34
2018-05-03T19:37:54.710Z,97971.10
2018-05-03T19:40:22.235Z,97967.36
2018-05-03T19:42:49.780Z,97976.31
2018-05-03T19:45:17.495Z,97976.97
2018-05-03T19:47:45.229Z,97976.47
2018-05-03T19:50:13.059Z,97977.97
2018-05-03T19:52:40.854Z,97980.20
2018-05-03T19:55:08.611Z,97977.93
2018-05-03T19:57:37.328Z,97979.45
2018-05-03T20:00:05.787Z,97981.41
2018-05-03T20:02:33.795Z,97977.12
2018-05-03T20:05:01.346Z,97984.19
2018-05-03T20:07:29.139Z,97987.22
2018-05-03T20:09:56.737Z,97980.31
2018-05-03T20:12:24.801Z,97984.30
2018-05-03T20:14:52.519Z,97976.41
2018-05-03T20:17:20.334Z,97983.29
2018-05-03T20:19:48.045Z,97980.75
2018-05-03T20:22:15.715Z,97974.30
2018-05-03T20:24:43.408Z,97978.02
2018-05-03T20:27:10.956Z,97973.84
2018-05-03T20:29:38.519Z,97975.55
2018-05-03T20:32:06.263Z,97976.70
2018-05-03T20:34:33.857Z,97978.69
2018-05-03T20:37:01.417Z,97973.58
2018-05-03T20:39:28.960Z,97978.12
2018-05-03T20:41:56.520Z,97970.44
2018-05-03T20:44:24.052Z,97969.34
2018-05-03T20:46:51.820Z,97970.81
2018-05-03T20:49:19.623Z,97964.68
2018-05-03T20:51:47.224Z,97962.11
2018-05-03T20:54:14.769Z,97967.27
2018-05-03T20:56:42.465Z,97959.22
2018-05-03T20:59:10.299Z,97960.04
2018-05-03T21:01:38.000Z,97959.83
2018-05-03T21:04:05.582Z,97954.17
2018-05-03T21:06:33.359Z,97965.53
2018-05-03T21:09:01.089Z,97969.38
2018-05-03T21:11:29.010Z,97964.92
2018-05-03T21:13:56.711Z,97973.20
2018-05-03T21:16:24.504Z,97977.80
2018-05-03T21:18:52.056Z,97975.98
2018-05-03T21:21:19.711Z,97978.43
2018-05-03T21:23:47.335Z,97979.15
2018-05-03T21:26:14.917Z,97976.86
2018-05-03T21:28:42.573Z,97977.66
2018-05-03T21:31:10.831Z,97986.13
2018-05-03T21:33:38.515Z,97984.40
2018-05-03T21:36:06.056Z,97984.98
2018-05-03T21:38:34.861Z,97991.03
2018-05-03T21:41:02.516Z,97992.70
2018-05-03T21:43:30.065Z,97998.91
2018-05-03T21:45:57.669Z,97994.35
2018-05-03T21:48:25.399Z,98000.57
2018-05-03T21:50:53.369Z,98003.67
2018-05-03T21:53:20.996Z,97994.53
2018-05-03T21:55:48.589Z,97993.57
2018-05-03T21:58:16.195Z,97995.73
2018-05-03T22:00:43.796Z,97998.87
2018-05-03T22:03:11.511Z,98008.75
2018-05-03T22:05:39.061Z,98004.94
2018-05-03T22:08:06.722Z,97997.66
2018-05-03T22:10:34.242Z,98001.53
2018-05-03T22:13:01.771Z,98006.92
2018-05-03T22:15:29.654Z,98007.80
2018-05-03T22:17:57.816Z,98005.07
2018-05-03T22:20:25.376Z,98008.94
2018-05-03T22:22:52.990Z,98022.66
2018-05-03T22:25:20.547Z,98019.37
2018-05-03T22:27:48.312Z,98023.41
2018-05-03T22:30:15.870Z,98026.84
2018-05-03T22:32:43.631Z,98025.11
2018-05-03T22:35:11.197Z,98028.08
2018-05-03T22:37:38.749Z,98041.13
2018-05-03T22:40:06.739Z,98044.56
2018-05-03T22:42:34.376Z,98038.15
2018-05-03T22:45:02.177Z,98041.28
2018-05-03T22:47:30.008Z,98041.68
2018-05-03T22:49:57.775Z,98051.93
2018-05-03T22:52:25.357Z,98041.98
2018-05-03T22:54:53.017Z,98045.86
2018-05-03T22:57:20.512Z,98037.22
2018-05-03T22:59:48.035Z,98040.56
2018-05-03T23:02:15.721Z,98030.56
2018-05-03T23:04:43.272Z,98039.14
2018-05-03T23:07:10.887Z,98032.48
2018-05-03T23:09:38.558Z,98025.55
2018-05-03T23:12:06.122Z,98025.70
2018-05-03T23:14:33.740Z,98029.02
2018-05-03T23:17:01.416Z,98026.75
2018-05-03T23:19:29.008Z,98022.41
2018-05-03T23:21:56.552Z,98022.60
2018-05-03T23:24:24.277Z,98020.99
2018-05-03T23:26:52.129Z,98022.20
2018-05-03T23:29:19.745Z,98023.88
2018-05-03T23:31:47.529Z,98017.40
2018-05-03T23:34:15.081Z,98011.20
2018-05-03T23:36:42.613Z,98015.48
2018-05-03T23:39:10.253Z,98013.31
2018-05-03T23:41:37.832Z,98019.32
2018-05-03T23:44:05.571Z,98018.70
2018-05-03T23:46:33.167Z,98012.05
2018-05-03T23:49:00.781Z,98010.86
2018-05-03T23:51:28.367Z,98006.47
2018-05-03T23:53:56.117Z,98003.19
2018-05-03T23:56:23.722Z,98005.41
2018-05-03T23:58:51.276Z,97999.19
